Terminal Aerodrome Forecast
Issued by NWS

Home | Current Version | Previous Version | Text Only | Print | Product List | Glossary On
Versions: 1 2 3 4 5 6 7 8 9 10 11 12 13 14 15 16 17
000
FTAK31 PAFA 220540
TAFAFA
TAF
PAFA 220540Z 2206/2312 06010KT P6SM -RA BKN035 BKN050 OVC070
     FM221200 02007KT P6SM VCSH OVC070
     FM222100 04005KT P6SM SCT040 OVC070=

USA.gov is the U.S. government's official web portal to all federal, state and local government web resources and services.